sensor_id;sensor_type;location;lat;lon;timestamp;P1;durP1;ratioP1;P2;durP2;ratioP2
36195;SDS011;22237;51.974;4.616;2023-04-06T00:01:35;19.92;;;6.90;;
36195;SDS011;22237;51.974;4.616;2023-04-06T00:04:00;15.73;;;6.72;;
36195;SDS011;22237;51.974;4.616;2023-04-06T00:06:26;13.93;;;6.63;;
36195;SDS011;22237;51.974;4.616;2023-04-06T00:08:51;14.38;;;6.63;;
36195;SDS011;22237;51.974;4.616;2023-04-06T00:11:17;16.25;;;7.15;;
36195;SDS011;22237;51.974;4.616;2023-04-06T00:13:42;16.67;;;6.97;;
36195;SDS011;22237;51.974;4.616;2023-04-06T00:16:07;16.15;;;5.80;;
36195;SDS011;22237;51.974;4.616;2023-04-06T00:18:32;12.25;;;6.47;;
36195;SDS011;22237;51.974;4.616;2023-04-06T00:20:58;13.68;;;6.30;;
36195;SDS011;22237;51.974;4.616;2023-04-06T00:23:23;15.90;;;6.15;;
36195;SDS011;22237;51.974;4.616;2023-04-06T00:25:48;15.40;;;5.97;;
36195;SDS011;22237;51.974;4.616;2023-04-06T00:28:13;14.32;;;6.07;;
36195;SDS011;22237;51.974;4.616;2023-04-06T00:30:39;19.10;;;6.63;;
36195;SDS011;22237;51.974;4.616;2023-04-06T00:33:04;14.60;;;6.25;;
36195;SDS011;22237;51.974;4.616;2023-04-06T00:35:30;13.57;;;6.68;;
36195;SDS011;22237;51.974;4.616;2023-04-06T00:37:55;14.52;;;6.50;;
36195;SDS011;22237;51.974;4.616;2023-04-06T00:40:20;10.55;;;5.57;;
36195;SDS011;22237;51.974;4.616;2023-04-06T00:42:46;15.05;;;5.93;;
36195;SDS011;22237;51.974;4.616;2023-04-06T00:45:11;13.95;;;6.40;;
36195;SDS011;22237;51.974;4.616;2023-04-06T00:47:36;16.92;;;6.35;;
36195;SDS011;22237;51.974;4.616;2023-04-06T00:50:02;18.05;;;5.80;;
36195;SDS011;22237;51.974;4.616;2023-04-06T00:52:27;11.35;;;5.43;;
36195;SDS011;22237;51.974;4.616;2023-04-06T00:54:52;11.00;;;5.80;;
36195;SDS011;22237;51.974;4.616;2023-04-06T00:57:18;12.98;;;5.57;;
36195;SDS011;22237;51.974;4.616;2023-04-06T00:59:43;19.10;;;6.45;;
36195;SDS011;22237;51.974;4.616;2023-04-06T01:02:08;16.23;;;5.90;;
36195;SDS011;22237;51.974;4.616;2023-04-06T01:04:34;15.02;;;5.40;;
36195;SDS011;22237;51.974;4.616;2023-04-06T01:06:59;13.65;;;5.95;;
36195;SDS011;22237;51.974;4.616;2023-04-06T01:09:24;11.13;;;5.85;;
36195;SDS011;22237;51.974;4.616;2023-04-06T01:11:52;12.93;;;6.32;;
36195;SDS011;22237;51.974;4.616;2023-04-06T01:14:17;10.23;;;5.38;;
36195;SDS011;22237;51.974;4.616;2023-04-06T01:16:42;13.55;;;6.55;;
36195;SDS011;22237;51.974;4.616;2023-04-06T01:19:11;15.43;;;6.13;;
36195;SDS011;22237;51.974;4.616;2023-04-06T01:21:37;18.85;;;5.93;;
36195;SDS011;22237;51.974;4.616;2023-04-06T01:24:02;12.45;;;5.90;;
36195;SDS011;22237;51.974;4.616;2023-04-06T01:26:27;14.02;;;5.65;;
36195;SDS011;22237;51.974;4.616;2023-04-06T01:28:54;11.90;;;6.40;;
36195;SDS011;22237;51.974;4.616;2023-04-06T01:31:19;12.68;;;5.32;;
36195;SDS011;22237;51.974;4.616;2023-04-06T01:33:44;11.77;;;6.10;;
36195;SDS011;22237;51.974;4.616;2023-04-06T01:36:10;14.90;;;6.40;;
36195;SDS011;22237;51.974;4.616;2023-04-06T01:38:35;10.80;;;6.03;;
36195;SDS011;22237;51.974;4.616;2023-04-06T01:41:00;16.48;;;5.95;;
36195;SDS011;22237;51.974;4.616;2023-04-06T01:43:25;15.87;;;6.83;;
36195;SDS011;22237;51.974;4.616;2023-04-06T01:45:51;15.93;;;6.82;;
36195;SDS011;22237;51.974;4.616;2023-04-06T01:48:16;13.80;;;6.47;;
36195;SDS011;22237;51.974;4.616;2023-04-06T01:50:42;16.55;;;5.57;;
36195;SDS011;22237;51.974;4.616;2023-04-06T01:53:07;13.40;;;5.90;;
36195;SDS011;22237;51.974;4.616;2023-04-06T01:55:32;13.80;;;6.50;;
36195;SDS011;22237;51.974;4.616;2023-04-06T01:57:57;10.90;;;5.87;;
36195;SDS011;22237;51.974;4.616;2023-04-06T02:00:22;15.47;;;6.13;;
36195;SDS011;22237;51.974;4.616;2023-04-06T02:02:48;21.00;;;5.60;;
36195;SDS011;22237;51.974;4.616;2023-04-06T02:05:13;17.30;;;6.65;;
36195;SDS011;22237;51.974;4.616;2023-04-06T02:07:38;10.43;;;6.32;;
36195;SDS011;22237;51.974;4.616;2023-04-06T02:10:03;11.35;;;5.97;;
36195;SDS011;22237;51.974;4.616;2023-04-06T02:12:29;16.15;;;5.90;;
36195;SDS011;22237;51.974;4.616;2023-04-06T02:14:54;17.90;;;7.32;;
36195;SDS011;22237;51.974;4.616;2023-04-06T02:17:19;12.55;;;5.75;;
36195;SDS011;22237;51.974;4.616;2023-04-06T02:19:45;11.30;;;5.22;;
36195;SDS011;22237;51.974;4.616;2023-04-06T02:22:10;13.68;;;6.28;;
36195;SDS011;22237;51.974;4.616;2023-04-06T02:24:35;17.70;;;7.20;;
36195;SDS011;22237;51.974;4.616;2023-04-06T02:27:01;14.55;;;6.38;;
36195;SDS011;22237;51.974;4.616;2023-04-06T02:29:26;14.88;;;7.55;;
36195;SDS011;22237;51.974;4.616;2023-04-06T02:31:51;13.75;;;6.38;;
36195;SDS011;22237;51.974;4.616;2023-04-06T02:34:17;17.02;;;6.82;;
36195;SDS011;22237;51.974;4.616;2023-04-06T02:36:45;13.65;;;6.82;;
36195;SDS011;22237;51.974;4.616;2023-04-06T02:39:11;20.20;;;6.70;;
36195;SDS011;22237;51.974;4.616;2023-04-06T02:41:36;14.07;;;5.93;;
36195;SDS011;22237;51.974;4.616;2023-04-06T02:44:02;19.25;;;7.15;;
36195;SDS011;22237;51.974;4.616;2023-04-06T02:46:28;16.85;;;6.75;;
36195;SDS011;22237;51.974;4.616;2023-04-06T02:48:53;11.55;;;6.35;;
36195;SDS011;22237;51.974;4.616;2023-04-06T02:51:18;22.30;;;6.95;;
36195;SDS011;22237;51.974;4.616;2023-04-06T02:53:43;18.75;;;8.63;;
36195;SDS011;22237;51.974;4.616;2023-04-06T02:56:08;11.65;;;6.60;;
36195;SDS011;22237;51.974;4.616;2023-04-06T02:58:34;24.60;;;7.32;;
36195;SDS011;22237;51.974;4.616;2023-04-06T03:00:59;13.97;;;6.20;;
36195;SDS011;22237;51.974;4.616;2023-04-06T03:03:24;12.85;;;6.50;;
36195;SDS011;22237;51.974;4.616;2023-04-06T03:05:50;19.30;;;7.40;;
36195;SDS011;22237;51.974;4.616;2023-04-06T03:08:15;16.35;;;7.07;;
36195;SDS011;22237;51.974;4.616;2023-04-06T03:10:40;17.92;;;7.28;;
36195;SDS011;22237;51.974;4.616;2023-04-06T03:13:06;15.23;;;7.00;;
36195;SDS011;22237;51.974;4.616;2023-04-06T03:15:31;16.27;;;6.72;;
36195;SDS011;22237;51.974;4.616;2023-04-06T03:17:56;18.58;;;7.25;;
36195;SDS011;22237;51.974;4.616;2023-04-06T03:20:21;14.13;;;6.35;;
36195;SDS011;22237;51.974;4.616;2023-04-06T03:22:47;14.60;;;6.10;;
36195;SDS011;22237;51.974;4.616;2023-04-06T03:25:12;13.60;;;6.55;;
36195;SDS011;22237;51.974;4.616;2023-04-06T03:27:37;15.55;;;7.93;;
36195;SDS011;22237;51.974;4.616;2023-04-06T03:30:02;19.87;;;7.73;;
36195;SDS011;22237;51.974;4.616;2023-04-06T03:32:28;13.85;;;6.68;;
36195;SDS011;22237;51.974;4.616;2023-04-06T03:34:53;20.40;;;7.70;;
36195;SDS011;22237;51.974;4.616;2023-04-06T03:37:18;14.45;;;6.90;;
36195;SDS011;22237;51.974;4.616;2023-04-06T03:39:43;17.17;;;7.53;;
36195;SDS011;22237;51.974;4.616;2023-04-06T03:42:08;21.90;;;7.07;;
36195;SDS011;22237;51.974;4.616;2023-04-06T03:44:34;17.42;;;7.10;;
36195;SDS011;22237;51.974;4.616;2023-04-06T03:46:59;19.50;;;8.25;;
36195;SDS011;22237;51.974;4.616;2023-04-06T03:49:24;17.80;;;7.82;;
36195;SDS011;22237;51.974;4.616;2023-04-06T03:51:50;13.85;;;6.93;;
36195;SDS011;22237;51.974;4.616;2023-04-06T03:54:15;16.40;;;7.28;;
36195;SDS011;22237;51.974;4.616;2023-04-06T03:56:40;17.33;;;7.03;;
36195;SDS011;22237;51.974;4.616;2023-04-06T03:59:05;14.07;;;6.90;;
36195;SDS011;22237;51.974;4.616;2023-04-06T04:01:30;19.65;;;7.85;;
36195;SDS011;22237;51.974;4.616;2023-04-06T04:03:56;16.75;;;7.18;;
36195;SDS011;22237;51.974;4.616;2023-04-06T04:06:21;23.52;;;8.07;;
36195;SDS011;22237;51.974;4.616;2023-04-06T04:08:46;18.08;;;8.13;;
36195;SDS011;22237;51.974;4.616;2023-04-06T04:11:11;26.50;;;8.10;;
36195;SDS011;22237;51.974;4.616;2023-04-06T04:13:37;18.75;;;7.43;;
36195;SDS011;22237;51.974;4.616;2023-04-06T04:16:02;18.10;;;6.60;;
36195;SDS011;22237;51.974;4.616;2023-04-06T04:18:27;16.75;;;8.80;;
36195;SDS011;22237;51.974;4.616;2023-04-06T04:20:52;24.77;;;8.60;;
36195;SDS011;22237;51.974;4.616;2023-04-06T04:23:18;16.23;;;7.97;;
36195;SDS011;22237;51.974;4.616;2023-04-06T04:25:43;15.13;;;7.40;;
36195;SDS011;22237;51.974;4.616;2023-04-06T04:28:08;17.65;;;7.82;;
36195;SDS011;22237;51.974;4.616;2023-04-06T04:30:33;16.70;;;7.63;;
36195;SDS011;22237;51.974;4.616;2023-04-06T04:32:58;13.65;;;7.43;;
36195;SDS011;22237;51.974;4.616;2023-04-06T04:35:24;16.95;;;7.80;;
36195;SDS011;22237;51.974;4.616;2023-04-06T04:37:49;16.50;;;7.13;;
36195;SDS011;22237;51.974;4.616;2023-04-06T04:40:14;16.13;;;7.45;;
36195;SDS011;22237;51.974;4.616;2023-04-06T04:42:40;21.33;;;7.75;;
36195;SDS011;22237;51.974;4.616;2023-04-06T04:45:06;14.93;;;7.47;;
36195;SDS011;22237;51.974;4.616;2023-04-06T04:47:31;16.70;;;7.63;;
36195;SDS011;22237;51.974;4.616;2023-04-06T04:49:56;18.90;;;7.55;;
36195;SDS011;22237;51.974;4.616;2023-04-06T04:52:21;17.73;;;7.95;;
36195;SDS011;22237;51.974;4.616;2023-04-06T04:54:47;19.27;;;8.30;;
36195;SDS011;22237;51.974;4.616;2023-04-06T04:57:12;17.20;;;7.85;;
36195;SDS011;22237;51.974;4.616;2023-04-06T04:59:37;26.00;;;8.40;;
36195;SDS011;22237;51.974;4.616;2023-04-06T05:04:53;18.95;;;7.93;;
36195;SDS011;22237;51.974;4.616;2023-04-06T05:07:18;14.63;;;7.50;;
36195;SDS011;22237;51.974;4.616;2023-04-06T05:09:45;23.55;;;8.43;;
36195;SDS011;22237;51.974;4.616;2023-04-06T05:12:10;21.52;;;7.75;;
36195;SDS011;22237;51.974;4.616;2023-04-06T05:14:36;21.33;;;8.73;;
36195;SDS011;22237;51.974;4.616;2023-04-06T05:17:01;23.75;;;8.10;;
36195;SDS011;22237;51.974;4.616;2023-04-06T05:19:26;17.77;;;7.47;;
36195;SDS011;22237;51.974;4.616;2023-04-06T05:21:51;31.23;;;10.00;;
36195;SDS011;22237;51.974;4.616;2023-04-06T05:24:17;21.15;;;8.40;;
36195;SDS011;22237;51.974;4.616;2023-04-06T05:26:42;21.23;;;7.60;;
36195;SDS011;22237;51.974;4.616;2023-04-06T05:29:07;23.73;;;8.65;;
36195;SDS011;22237;51.974;4.616;2023-04-06T05:31:32;20.80;;;6.82;;
36195;SDS011;22237;51.974;4.616;2023-04-06T05:33:58;20.42;;;7.22;;
36195;SDS011;22237;51.974;4.616;2023-04-06T05:36:23;22.55;;;9.15;;
36195;SDS011;22237;51.974;4.616;2023-04-06T05:38:48;18.75;;;9.18;;
36195;SDS011;22237;51.974;4.616;2023-04-06T05:41:15;19.35;;;8.30;;
36195;SDS011;22237;51.974;4.616;2023-04-06T05:43:40;24.85;;;9.40;;
36195;SDS011;22237;51.974;4.616;2023-04-06T05:46:06;25.88;;;8.82;;
36195;SDS011;22237;51.974;4.616;2023-04-06T05:48:31;21.40;;;8.13;;
36195;SDS011;22237;51.974;4.616;2023-04-06T05:50:56;23.80;;;8.82;;
36195;SDS011;22237;51.974;4.616;2023-04-06T05:53:21;18.83;;;9.17;;
36195;SDS011;22237;51.974;4.616;2023-04-06T05:55:47;22.52;;;9.32;;
36195;SDS011;22237;51.974;4.616;2023-04-06T05:58:12;27.83;;;9.63;;
36195;SDS011;22237;51.974;4.616;2023-04-06T06:00:37;20.75;;;9.45;;
36195;SDS011;22237;51.974;4.616;2023-04-06T06:03:02;27.05;;;10.32;;
36195;SDS011;22237;51.974;4.616;2023-04-06T06:05:31;22.08;;;9.32;;
36195;SDS011;22237;51.974;4.616;2023-04-06T06:07:56;22.58;;;8.48;;
36195;SDS011;22237;51.974;4.616;2023-04-06T06:10:21;28.30;;;10.20;;
36195;SDS011;22237;51.974;4.616;2023-04-06T06:12:46;27.90;;;10.10;;
36195;SDS011;22237;51.974;4.616;2023-04-06T06:15:22;27.13;;;10.20;;
36195;SDS011;22237;51.974;4.616;2023-04-06T06:17:47;25.85;;;10.15;;
36195;SDS011;22237;51.974;4.616;2023-04-06T06:20:13;24.03;;;9.00;;
36195;SDS011;22237;51.974;4.616;2023-04-06T06:22:38;23.48;;;9.43;;
36195;SDS011;22237;51.974;4.616;2023-04-06T06:25:05;27.45;;;9.93;;
36195;SDS011;22237;51.974;4.616;2023-04-06T06:27:30;27.17;;;10.63;;
36195;SDS011;22237;51.974;4.616;2023-04-06T06:29:55;23.83;;;10.25;;
36195;SDS011;22237;51.974;4.616;2023-04-06T06:32:21;23.35;;;9.80;;
36195;SDS011;22237;51.974;4.616;2023-04-06T06:34:46;31.27;;;9.93;;
36195;SDS011;22237;51.974;4.616;2023-04-06T06:37:12;26.10;;;9.27;;
36195;SDS011;22237;51.974;4.616;2023-04-06T06:39:38;20.17;;;9.13;;
36195;SDS011;22237;51.974;4.616;2023-04-06T06:42:03;28.70;;;10.57;;
36195;SDS011;22237;51.974;4.616;2023-04-06T06:44:28;27.58;;;10.00;;
36195;SDS011;22237;51.974;4.616;2023-04-06T06:46:53;24.52;;;10.02;;
36195;SDS011;22237;51.974;4.616;2023-04-06T06:49:19;23.80;;;9.68;;
36195;SDS011;22237;51.974;4.616;2023-04-06T06:51:44;22.92;;;9.38;;
36195;SDS011;22237;51.974;4.616;2023-04-06T06:54:10;22.77;;;9.68;;
36195;SDS011;22237;51.974;4.616;2023-04-06T06:56:36;24.33;;;9.52;;
36195;SDS011;22237;51.974;4.616;2023-04-06T06:59:02;24.88;;;9.30;;
36195;SDS011;22237;51.974;4.616;2023-04-06T07:01:28;24.00;;;10.10;;
36195;SDS011;22237;51.974;4.616;2023-04-06T07:03:53;28.70;;;11.43;;
36195;SDS011;22237;51.974;4.616;2023-04-06T07:06:18;23.40;;;9.90;;
36195;SDS011;22237;51.974;4.616;2023-04-06T07:08:43;23.47;;;9.27;;
36195;SDS011;22237;51.974;4.616;2023-04-06T07:11:08;20.13;;;8.60;;
36195;SDS011;22237;51.974;4.616;2023-04-06T07:13:34;26.47;;;9.80;;
36195;SDS011;22237;51.974;4.616;2023-04-06T07:15:59;28.67;;;10.20;;
36195;SDS011;22237;51.974;4.616;2023-04-06T07:18:24;20.48;;;9.20;;
36195;SDS011;22237;51.974;4.616;2023-04-06T07:20:50;25.13;;;10.10;;
36195;SDS011;22237;51.974;4.616;2023-04-06T07:23:15;26.45;;;10.80;;
36195;SDS011;22237;51.974;4.616;2023-04-06T07:25:40;29.45;;;9.68;;
36195;SDS011;22237;51.974;4.616;2023-04-06T07:28:05;29.95;;;11.30;;
36195;SDS011;22237;51.974;4.616;2023-04-06T07:30:31;20.80;;;9.15;;
36195;SDS011;22237;51.974;4.616;2023-04-06T07:32:56;28.08;;;10.05;;
36195;SDS011;22237;51.974;4.616;2023-04-06T07:35:25;19.67;;;9.25;;
36195;SDS011;22237;51.974;4.616;2023-04-06T07:37:51;25.60;;;9.98;;
36195;SDS011;22237;51.974;4.616;2023-04-06T07:40:16;30.15;;;11.48;;
36195;SDS011;22237;51.974;4.616;2023-04-06T07:42:41;33.63;;;10.60;;
36195;SDS011;22237;51.974;4.616;2023-04-06T07:45:07;24.10;;;10.57;;
36195;SDS011;22237;51.974;4.616;2023-04-06T07:47:32;27.63;;;11.10;;
36195;SDS011;22237;51.974;4.616;2023-04-06T07:49:58;25.50;;;10.98;;
36195;SDS011;22237;51.974;4.616;2023-04-06T07:52:23;25.73;;;9.20;;
36195;SDS011;22237;51.974;4.616;2023-04-06T07:54:48;26.88;;;10.18;;
36195;SDS011;22237;51.974;4.616;2023-04-06T07:57:14;22.52;;;10.00;;
36195;SDS011;22237;51.974;4.616;2023-04-06T07:59:39;21.67;;;10.20;;
36195;SDS011;22237;51.974;4.616;2023-04-06T08:02:05;28.20;;;10.60;;
36195;SDS011;22237;51.974;4.616;2023-04-06T08:04:30;26.50;;;11.20;;
36195;SDS011;22237;51.974;4.616;2023-04-06T08:06:55;25.90;;;8.67;;
36195;SDS011;22237;51.974;4.616;2023-04-06T08:09:21;22.00;;;8.95;;
36195;SDS011;22237;51.974;4.616;2023-04-06T08:11:46;31.47;;;9.80;;
36195;SDS011;22237;51.974;4.616;2023-04-06T08:14:12;18.23;;;8.85;;
36195;SDS011;22237;51.974;4.616;2023-04-06T08:16:38;23.88;;;10.05;;
36195;SDS011;22237;51.974;4.616;2023-04-06T08:19:03;23.42;;;10.48;;
36195;SDS011;22237;51.974;4.616;2023-04-06T08:21:29;21.13;;;9.63;;
36195;SDS011;22237;51.974;4.616;2023-04-06T08:23:54;23.00;;;9.48;;
36195;SDS011;22237;51.974;4.616;2023-04-06T08:26:19;24.33;;;9.67;;
36195;SDS011;22237;51.974;4.616;2023-04-06T08:28:45;26.35;;;9.52;;
36195;SDS011;22237;51.974;4.616;2023-04-06T08:31:10;23.35;;;10.40;;
36195;SDS011;22237;51.974;4.616;2023-04-06T08:33:35;23.97;;;9.23;;
36195;SDS011;22237;51.974;4.616;2023-04-06T08:36:11;28.65;;;10.88;;
36195;SDS011;22237;51.974;4.616;2023-04-06T08:38:37;27.85;;;11.38;;
36195;SDS011;22237;51.974;4.616;2023-04-06T08:41:12;26.17;;;10.57;;
36195;SDS011;22237;51.974;4.616;2023-04-06T08:43:41;25.95;;;9.80;;
36195;SDS011;22237;51.974;4.616;2023-04-06T08:46:07;29.45;;;10.68;;
36195;SDS011;22237;51.974;4.616;2023-04-06T08:48:32;26.92;;;9.85;;
36195;SDS011;22237;51.974;4.616;2023-04-06T08:50:58;21.75;;;8.65;;
36195;SDS011;22237;51.974;4.616;2023-04-06T08:53:24;28.02;;;10.20;;
36195;SDS011;22237;51.974;4.616;2023-04-06T08:55:49;22.67;;;9.68;;
36195;SDS011;22237;51.974;4.616;2023-04-06T08:58:15;12.45;;;5.80;;
36195;SDS011;22237;51.974;4.616;2023-04-06T09:00:40;14.13;;;6.50;;
36195;SDS011;22237;51.974;4.616;2023-04-06T09:03:06;18.25;;;8.25;;
36195;SDS011;22237;51.974;4.616;2023-04-06T09:05:32;20.70;;;6.60;;
36195;SDS011;22237;51.974;4.616;2023-04-06T09:07:57;14.50;;;7.15;;
36195;SDS011;22237;51.974;4.616;2023-04-06T09:10:22;20.92;;;6.95;;
36195;SDS011;22237;51.974;4.616;2023-04-06T09:12:50;20.65;;;7.47;;
36195;SDS011;22237;51.974;4.616;2023-04-06T09:15:19;11.43;;;5.20;;
36195;SDS011;22237;51.974;4.616;2023-04-06T09:17:45;16.23;;;6.05;;
36195;SDS011;22237;51.974;4.616;2023-04-06T09:20:11;13.48;;;6.35;;
36195;SDS011;22237;51.974;4.616;2023-04-06T09:22:36;16.77;;;5.57;;
36195;SDS011;22237;51.974;4.616;2023-04-06T09:25:02;18.92;;;6.63;;
36195;SDS011;22237;51.974;4.616;2023-04-06T09:27:31;12.27;;;5.35;;
36195;SDS011;22237;51.974;4.616;2023-04-06T09:30:06;11.60;;;5.00;;
36195;SDS011;22237;51.974;4.616;2023-04-06T09:32:32;10.82;;;4.88;;
36195;SDS011;22237;51.974;4.616;2023-04-06T09:35:08;8.10;;;4.53;;
36195;SDS011;22237;51.974;4.616;2023-04-06T09:37:33;12.07;;;4.82;;
36195;SDS011;22237;51.974;4.616;2023-04-06T09:40:05;5.93;;;3.00;;
36195;SDS011;22237;51.974;4.616;2023-04-06T09:42:32;11.50;;;5.00;;
36195;SDS011;22237;51.974;4.616;2023-04-06T09:44:57;10.65;;;4.35;;
36195;SDS011;22237;51.974;4.616;2023-04-06T09:47:22;9.25;;;4.65;;
36195;SDS011;22237;51.974;4.616;2023-04-06T09:49:48;10.57;;;4.85;;
36195;SDS011;22237;51.974;4.616;2023-04-06T09:52:14;7.35;;;3.80;;
36195;SDS011;22237;51.974;4.616;2023-04-06T09:54:40;12.13;;;4.65;;
36195;SDS011;22237;51.974;4.616;2023-04-06T09:57:07;9.15;;;5.28;;
36195;SDS011;22237;51.974;4.616;2023-04-06T10:02:04;8.23;;;4.10;;
36195;SDS011;22237;51.974;4.616;2023-04-06T10:06:58;12.48;;;5.00;;
36195;SDS011;22237;51.974;4.616;2023-04-06T10:09:24;11.68;;;4.22;;
36195;SDS011;22237;51.974;4.616;2023-04-06T10:11:50;17.52;;;4.90;;
36195;SDS011;22237;51.974;4.616;2023-04-06T10:14:16;10.73;;;4.65;;
36195;SDS011;22237;51.974;4.616;2023-04-06T10:16:42;8.57;;;4.35;;
36195;SDS011;22237;51.974;4.616;2023-04-06T10:19:14;12.43;;;4.57;;
36195;SDS011;22237;51.974;4.616;2023-04-06T10:21:40;10.57;;;4.68;;
36195;SDS011;22237;51.974;4.616;2023-04-06T10:24:08;9.68;;;4.90;;
36195;SDS011;22237;51.974;4.616;2023-04-06T10:26:37;10.50;;;5.18;;
36195;SDS011;22237;51.974;4.616;2023-04-06T10:29:03;10.20;;;4.10;;
36195;SDS011;22237;51.974;4.616;2023-04-06T10:31:28;8.15;;;4.30;;
36195;SDS011;22237;51.974;4.616;2023-04-06T10:33:57;10.02;;;5.40;;
36195;SDS011;22237;51.974;4.616;2023-04-06T10:36:24;9.38;;;4.78;;
36195;SDS011;22237;51.974;4.616;2023-04-06T10:38:55;11.10;;;5.28;;
36195;SDS011;22237;51.974;4.616;2023-04-06T10:41:21;11.00;;;5.25;;
36195;SDS011;22237;51.974;4.616;2023-04-06T10:43:54;3.25;;;2.05;;
36195;SDS011;22237;51.974;4.616;2023-04-06T10:46:24;13.25;;;4.90;;
36195;SDS011;22237;51.974;4.616;2023-04-06T10:48:49;6.45;;;3.30;;
36195;SDS011;22237;51.974;4.616;2023-04-06T10:51:16;11.15;;;5.45;;
36195;SDS011;22237;51.974;4.616;2023-04-06T10:53:42;11.52;;;4.65;;
36195;SDS011;22237;51.974;4.616;2023-04-06T10:56:09;7.70;;;4.07;;
36195;SDS011;22237;51.974;4.616;2023-04-06T10:58:36;7.47;;;5.03;;
36195;SDS011;22237;51.974;4.616;2023-04-06T11:01:01;10.80;;;5.13;;
36195;SDS011;22237;51.974;4.616;2023-04-06T11:03:27;9.88;;;5.03;;
36195;SDS011;22237;51.974;4.616;2023-04-06T11:05:52;13.35;;;5.53;;
36195;SDS011;22237;51.974;4.616;2023-04-06T11:11:10;16.25;;;6.20;;
36195;SDS011;22237;51.974;4.616;2023-04-06T11:13:52;7.90;;;5.03;;
36195;SDS011;22237;51.974;4.616;2023-04-06T11:18:56;8.93;;;5.03;;
36195;SDS011;22237;51.974;4.616;2023-04-06T11:21:43;8.73;;;4.28;;
36195;SDS011;22237;51.974;4.616;2023-04-06T11:24:19;9.55;;;3.67;;
36195;SDS011;22237;51.974;4.616;2023-04-06T11:29:11;10.52;;;5.15;;
36195;SDS011;22237;51.974;4.616;2023-04-06T11:31:37;8.70;;;4.72;;
36195;SDS011;22237;51.974;4.616;2023-04-06T11:34:08;8.32;;;4.07;;
36195;SDS011;22237;51.974;4.616;2023-04-06T11:36:33;19.42;;;5.95;;
36195;SDS011;22237;51.974;4.616;2023-04-06T11:38:58;13.40;;;4.82;;
36195;SDS011;22237;51.974;4.616;2023-04-06T11:41:24;8.90;;;4.05;;
36195;SDS011;22237;51.974;4.616;2023-04-06T11:43:51;10.57;;;4.78;;
36195;SDS011;22237;51.974;4.616;2023-04-06T11:46:19;9.57;;;4.72;;
36195;SDS011;22237;51.974;4.616;2023-04-06T11:48:45;8.35;;;4.45;;
36195;SDS011;22237;51.974;4.616;2023-04-06T11:51:11;10.52;;;5.00;;
36195;SDS011;22237;51.974;4.616;2023-04-06T11:53:43;12.40;;;4.63;;
36195;SDS011;22237;51.974;4.616;2023-04-06T11:56:08;10.23;;;4.50;;
36195;SDS011;22237;51.974;4.616;2023-04-06T11:58:33;9.70;;;4.37;;
36195;SDS011;22237;51.974;4.616;2023-04-06T12:01:05;10.90;;;5.75;;
36195;SDS011;22237;51.974;4.616;2023-04-06T12:03:30;10.32;;;5.90;;
36195;SDS011;22237;51.974;4.616;2023-04-06T12:05:56;9.75;;;5.25;;
36195;SDS011;22237;51.974;4.616;2023-04-06T12:08:21;8.73;;;4.38;;
36195;SDS011;22237;51.974;4.616;2023-04-06T12:10:50;7.57;;;4.05;;
36195;SDS011;22237;51.974;4.616;2023-04-06T12:13:15;8.10;;;4.53;;
36195;SDS011;22237;51.974;4.616;2023-04-06T12:15:40;8.30;;;4.23;;
36195;SDS011;22237;51.974;4.616;2023-04-06T12:18:06;8.50;;;3.65;;
36195;SDS011;22237;51.974;4.616;2023-04-06T12:20:31;9.15;;;4.80;;
36195;SDS011;22237;51.974;4.616;2023-04-06T12:22:56;8.98;;;3.85;;
36195;SDS011;22237;51.974;4.616;2023-04-06T12:25:21;7.70;;;3.92;;
36195;SDS011;22237;51.974;4.616;2023-04-06T12:27:46;9.27;;;4.90;;
36195;SDS011;22237;51.974;4.616;2023-04-06T12:30:12;13.90;;;3.88;;
36195;SDS011;22237;51.974;4.616;2023-04-06T12:32:37;10.98;;;4.50;;
36195;SDS011;22237;51.974;4.616;2023-04-06T12:35:02;7.38;;;3.67;;
36195;SDS011;22237;51.974;4.616;2023-04-06T12:37:28;9.90;;;4.80;;
36195;SDS011;22237;51.974;4.616;2023-04-06T12:39:53;14.38;;;4.97;;
36195;SDS011;22237;51.974;4.616;2023-04-06T12:42:18;9.65;;;4.38;;
36195;SDS011;22237;51.974;4.616;2023-04-06T12:44:43;9.03;;;4.50;;
36195;SDS011;22237;51.974;4.616;2023-04-06T12:47:09;5.35;;;3.20;;
36195;SDS011;22237;51.974;4.616;2023-04-06T12:49:36;8.95;;;4.93;;
36195;SDS011;22237;51.974;4.616;2023-04-06T12:52:01;7.75;;;4.38;;
36195;SDS011;22237;51.974;4.616;2023-04-06T12:54:27;7.32;;;3.67;;
36195;SDS011;22237;51.974;4.616;2023-04-06T12:56:52;8.68;;;3.28;;
36195;SDS011;22237;51.974;4.616;2023-04-06T12:59:17;6.80;;;4.40;;
36195;SDS011;22237;51.974;4.616;2023-04-06T13:01:43;10.65;;;4.60;;
36195;SDS011;22237;51.974;4.616;2023-04-06T13:04:09;7.68;;;4.00;;
36195;SDS011;22237;51.974;4.616;2023-04-06T13:06:34;11.20;;;5.40;;
36195;SDS011;22237;51.974;4.616;2023-04-06T13:08:59;8.68;;;4.45;;
36195;SDS011;22237;51.974;4.616;2023-04-06T13:11:25;7.55;;;4.53;;
36195;SDS011;22237;51.974;4.616;2023-04-06T13:13:51;10.82;;;4.63;;
36195;SDS011;22237;51.974;4.616;2023-04-06T13:16:16;12.30;;;5.53;;
36195;SDS011;22237;51.974;4.616;2023-04-06T13:18:41;13.10;;;5.15;;
36195;SDS011;22237;51.974;4.616;2023-04-06T13:21:07;9.47;;;5.53;;
36195;SDS011;22237;51.974;4.616;2023-04-06T13:23:32;7.47;;;4.38;;
36195;SDS011;22237;51.974;4.616;2023-04-06T13:25:58;11.50;;;5.25;;
36195;SDS011;22237;51.974;4.616;2023-04-06T13:28:24;11.00;;;4.97;;
36195;SDS011;22237;51.974;4.616;2023-04-06T13:30:49;7.45;;;5.30;;
36195;SDS011;22237;51.974;4.616;2023-04-06T13:33:15;8.52;;;4.57;;
36195;SDS011;22237;51.974;4.616;2023-04-06T13:35:43;7.90;;;4.50;;
36195;SDS011;22237;51.974;4.616;2023-04-06T13:38:09;9.70;;;4.82;;
36195;SDS011;22237;51.974;4.616;2023-04-06T13:40:34;7.53;;;3.83;;
36195;SDS011;22237;51.974;4.616;2023-04-06T13:43:00;7.33;;;4.27;;
36195;SDS011;22237;51.974;4.616;2023-04-06T13:45:25;8.07;;;4.68;;
36195;SDS011;22237;51.974;4.616;2023-04-06T13:47:50;11.47;;;4.10;;
36195;SDS011;22237;51.974;4.616;2023-04-06T13:50:15;6.70;;;3.85;;
36195;SDS011;22237;51.974;4.616;2023-04-06T13:52:41;7.05;;;4.65;;
36195;SDS011;22237;51.974;4.616;2023-04-06T13:55:06;9.77;;;5.72;;
36195;SDS011;22237;51.974;4.616;2023-04-06T13:57:32;8.00;;;4.20;;
36195;SDS011;22237;51.974;4.616;2023-04-06T13:59:57;12.70;;;4.70;;
36195;SDS011;22237;51.974;4.616;2023-04-06T14:02:22;10.32;;;4.53;;
36195;SDS011;22237;51.974;4.616;2023-04-06T14:04:52;7.63;;;4.95;;
36195;SDS011;22237;51.974;4.616;2023-04-06T14:07:17;6.28;;;3.70;;
36195;SDS011;22237;51.974;4.616;2023-04-06T14:09:42;6.38;;;4.25;;
36195;SDS011;22237;51.974;4.616;2023-04-06T14:12:07;9.80;;;5.23;;
36195;SDS011;22237;51.974;4.616;2023-04-06T14:14:32;6.83;;;4.20;;
36195;SDS011;22237;51.974;4.616;2023-04-06T14:16:58;8.53;;;4.03;;
36195;SDS011;22237;51.974;4.616;2023-04-06T14:19:23;9.20;;;3.93;;
36195;SDS011;22237;51.974;4.616;2023-04-06T14:21:48;7.75;;;4.35;;
36195;SDS011;22237;51.974;4.616;2023-04-06T14:24:13;9.02;;;5.45;;
36195;SDS011;22237;51.974;4.616;2023-04-06T14:26:39;9.43;;;4.65;;
36195;SDS011;22237;51.974;4.616;2023-04-06T14:29:05;9.15;;;5.03;;
36195;SDS011;22237;51.974;4.616;2023-04-06T14:31:31;5.65;;;4.00;;
36195;SDS011;22237;51.974;4.616;2023-04-06T14:33:56;10.88;;;4.55;;
36195;SDS011;22237;51.974;4.616;2023-04-06T14:36:21;7.70;;;4.38;;
36195;SDS011;22237;51.974;4.616;2023-04-06T14:38:47;6.43;;;3.63;;
36195;SDS011;22237;51.974;4.616;2023-04-06T14:41:15;8.57;;;4.70;;
36195;SDS011;22237;51.974;4.616;2023-04-06T14:43:41;8.38;;;4.85;;